createdAt,value
2019-04-07T00:00:55.364Z,38.48
2019-04-07T00:03:24.924Z,39.40
2019-04-07T00:05:54.991Z,37.80
2019-04-07T00:08:24.488Z,37.88
2019-04-07T00:10:53.836Z,37.58
2019-04-07T00:13:23.251Z,37.67
2019-04-07T00:15:52.534Z,38.65
2019-04-07T00:18:22.408Z,36.93
2019-04-07T00:20:52.172Z,36.65
2019-04-07T00:23:24.738Z,38.25
2019-04-07T00:25:54.101Z,37.83
2019-04-07T00:28:23.545Z,37.20
2019-04-07T00:30:53.009Z,37.95
2019-04-07T00:33:22.289Z,37.33
2019-04-07T00:35:52.060Z,37.13
2019-04-07T00:38:21.635Z,38.10
2019-04-07T00:40:51.014Z,37.85
2019-04-07T00:43:20.911Z,37.53
2019-04-07T00:45:50.911Z,36.93
2019-04-07T00:48:21.136Z,36.55
2019-04-07T00:50:50.612Z,35.95
2019-04-07T00:53:20.073Z,37.88
2019-04-07T00:55:49.675Z,37.55
2019-04-07T00:58:19.220Z,36.95
2019-04-07T01:00:48.993Z,39.55
2019-04-07T01:03:18.670Z,37.78
2019-04-07T01:05:47.991Z,38.58
2019-04-07T01:08:17.308Z,36.63
2019-04-07T01:10:47.004Z,39.05
2019-04-07T01:13:16.600Z,38.23
2019-04-07T01:15:46.084Z,37.88
2019-04-07T01:18:15.453Z,36.20
2019-04-07T01:20:45.174Z,38.00
2019-04-07T01:26:26.640Z,37.60
2019-04-07T01:28:55.906Z,37.35
2019-04-07T01:31:25.211Z,36.88
2019-04-07T01:33:54.577Z,38.35
2019-04-07T01:36:23.888Z,38.85
2019-04-07T01:38:53.486Z,37.25
2019-04-07T01:41:24.491Z,37.20
2019-04-07T01:44:01.387Z,36.88
2019-04-07T01:46:41.542Z,36.50
2019-04-07T01:49:15.035Z,36.75
2019-04-07T01:51:46.537Z,36.93
2019-04-07T01:54:23.203Z,36.20
2019-04-07T01:57:10.510Z,36.30
2019-04-07T01:59:58.332Z,38.00
2019-04-07T02:02:29.285Z,37.15
2019-04-07T02:05:03.415Z,37.90
2019-04-07T02:07:51.279Z,36.93
2019-04-07T02:10:37.216Z,36.23
2019-04-07T02:13:11.148Z,35.78
2019-04-07T02:15:45.033Z,36.58
2019-04-07T02:18:32.920Z,36.58
2019-04-07T02:21:04.409Z,36.95
2019-04-07T02:23:48.163Z,37.10
2019-04-07T02:26:19.367Z,37.08
2019-04-07T02:28:50.413Z,35.85
2019-04-07T02:31:38.258Z,37.33
2019-04-07T02:34:09.537Z,38.40
2019-04-07T02:36:56.056Z,36.80
2019-04-07T02:39:30.014Z,37.25
2019-04-07T02:42:01.042Z,38.10
2019-04-07T02:44:40.970Z,35.75
2019-04-07T02:47:14.807Z,35.05
2019-04-07T02:49:48.721Z,36.95
2019-04-07T02:52:34.571Z,35.98
2019-04-07T02:55:24.093Z,36.42
2019-04-07T02:57:55.094Z,37.35
2019-04-07T03:00:32.199Z,35.15
2019-04-07T03:03:20.085Z,37.05
2019-04-07T03:05:51.288Z,35.73
2019-04-07T03:08:38.341Z,36.30
2019-04-07T03:11:12.214Z,37.05
2019-04-07T03:13:46.480Z,35.90
2019-04-07T03:16:29.379Z,35.68
2019-04-07T03:19:00.309Z,35.78
2019-04-07T03:21:40.380Z,36.85
2019-04-07T03:24:26.640Z,34.60
2019-04-07T03:27:15.821Z,36.33
2019-04-07T03:29:47.145Z,35.03
2019-04-07T03:32:35.519Z,37.03
2019-04-07T03:35:26.477Z,35.25
2019-04-07T03:38:08.966Z,33.75
2019-04-07T03:40:55.146Z,35.05
2019-04-07T03:43:29.111Z,34.43
2019-04-07T03:46:06.136Z,34.55
2019-04-07T03:48:46.056Z,34.13
2019-04-07T03:51:20.322Z,34.25
2019-04-07T03:54:00.655Z,35.13
2019-04-07T03:56:37.721Z,34.35
2019-04-07T03:59:08.833Z,33.83
2019-04-07T04:01:39.687Z,34.98
2019-04-07T04:04:22.482Z,35.20
2019-04-07T04:07:00.135Z,34.90
2019-04-07T04:09:43.013Z,34.18
2019-04-07T04:12:20.023Z,33.55
2019-04-07T04:15:06.765Z,34.58
2019-04-07T04:17:37.036Z,34.40
2019-04-07T04:20:08.487Z,36.77
2019-04-07T04:22:38.283Z,35.28
2019-04-07T04:25:09.318Z,34.53
2019-04-07T04:27:39.155Z,35.28
2019-04-07T04:30:12.153Z,33.10
2019-04-07T04:32:41.840Z,33.65
2019-04-07T04:35:12.426Z,34.55
2019-04-07T04:37:48.329Z,34.23
2019-04-07T04:40:14.125Z,34.08
2019-04-07T04:42:44.370Z,32.28
2019-04-07T04:45:14.145Z,33.85
2019-04-07T04:47:43.509Z,33.95
2019-04-07T04:50:13.045Z,33.65
2019-04-07T04:52:45.565Z,34.53
2019-04-07T04:55:15.359Z,33.63
2019-04-07T04:57:45.830Z,34.73
2019-04-07T05:00:15.880Z,33.75
2019-04-07T05:02:45.704Z,33.00
2019-04-07T05:05:15.246Z,33.02
2019-04-07T05:07:57.164Z,33.13
2019-04-07T05:10:19.246Z,32.45
2019-04-07T05:12:48.976Z,33.20
2019-04-07T05:15:18.323Z,32.03
2019-04-07T05:17:47.632Z,33.90
2019-04-07T05:20:17.319Z,33.80
2019-04-07T05:22:47.508Z,30.68
2019-04-07T05:25:17.439Z,33.02
2019-04-07T05:27:46.737Z,32.10
2019-04-07T05:30:16.994Z,32.95
2019-04-07T05:32:46.911Z,34.05
2019-04-07T05:35:16.430Z,35.15
2019-04-07T05:37:45.985Z,34.25
2019-04-07T05:40:15.555Z,33.30
2019-04-07T05:42:45.476Z,32.63
2019-04-07T05:45:15.058Z,32.20
2019-04-07T05:47:48.717Z,33.78
2019-04-07T05:50:16.589Z,34.30
2019-04-07T05:52:46.585Z,31.50
2019-04-07T05:55:16.202Z,33.45
2019-04-07T05:57:45.490Z,31.42
2019-04-07T06:00:16.632Z,34.23
2019-04-07T06:02:46.953Z,33.28
2019-04-07T06:05:17.727Z,34.85
2019-04-07T06:07:47.897Z,34.30
2019-04-07T06:10:18.344Z,34.03
2019-04-07T06:13:32.928Z,36.42
2019-04-07T06:15:33.491Z,34.38
2019-04-07T06:18:34.071Z,37.45
2019-04-07T06:21:02.771Z,36.65
2019-04-07T06:23:32.053Z,37.42
2019-04-07T06:26:09.141Z,37.23
2019-04-07T06:28:35.431Z,37.23
2019-04-07T06:31:06.520Z,37.80
2019-04-07T06:33:38.084Z,37.93
2019-04-07T06:36:06.922Z,38.15
2019-04-07T06:38:41.570Z,37.60
2019-04-07T06:41:07.397Z,37.67
2019-04-07T06:43:38.461Z,36.10
2019-04-07T06:46:22.616Z,36.88
2019-04-07T06:49:00.401Z,34.95
2019-04-07T06:51:46.655Z,35.03
2019-04-07T06:54:22.191Z,35.55
2019-04-07T06:56:59.078Z,36.10
2019-04-07T06:59:36.002Z,36.65
2019-04-07T07:02:15.725Z,35.65
2019-04-07T07:04:47.085Z,35.55
2019-04-07T07:07:36.394Z,35.70
2019-04-07T07:10:12.636Z,33.88
2019-04-07T07:12:45.072Z,35.75
2019-04-07T07:15:28.381Z,33.83
2019-04-07T07:18:08.989Z,34.85
2019-04-07T07:20:42.971Z,33.63
2019-04-07T07:23:14.963Z,33.40
2019-04-07T07:25:45.446Z,33.95
2019-04-07T07:28:14.802Z,33.58
2019-04-07T07:30:45.291Z,33.92
2019-04-07T07:33:14.871Z,33.75
2019-04-07T07:35:48.800Z,32.88
2019-04-07T07:38:15.544Z,32.73
2019-04-07T07:40:47.698Z,33.20
2019-04-07T07:43:17.618Z,33.50
2019-04-07T07:45:48.274Z,33.78
2019-04-07T07:48:18.392Z,33.33
2019-04-07T07:50:48.729Z,33.08
2019-04-07T07:53:19.167Z,33.23
2019-04-07T07:55:49.776Z,34.80
2019-04-07T07:58:19.386Z,34.03
2019-04-07T08:00:48.966Z,33.92
2019-04-07T08:03:18.918Z,33.55
2019-04-07T08:05:49.622Z,32.70
2019-04-07T08:08:18.933Z,33.48
2019-04-07T08:10:48.287Z,31.95
2019-04-07T08:13:17.902Z,32.45
2019-04-07T08:15:47.464Z,33.00
2019-04-07T08:18:19.625Z,32.33
2019-04-07T08:20:48.990Z,30.60
2019-04-07T08:23:18.735Z,30.97
2019-04-07T08:25:48.920Z,30.37
2019-04-07T08:28:19.759Z,31.10
2019-04-07T08:30:50.180Z,30.40
2019-04-07T08:33:20.210Z,32.20
2019-04-07T08:35:50.202Z,29.98
2019-04-07T08:38:23.549Z,31.15
2019-04-07T08:40:52.045Z,29.95
2019-04-07T08:43:23.426Z,31.23
2019-04-07T08:45:53.595Z,30.05
2019-04-07T08:48:23.191Z,28.65
2019-04-07T08:50:52.853Z,26.82
2019-04-07T08:53:22.908Z,26.73
2019-04-07T08:55:54.722Z,26.75
2019-04-07T08:58:27.458Z,23.67
2019-04-07T09:00:56.167Z,22.25
2019-04-07T09:03:29.146Z,22.70
2019-04-07T09:05:58.733Z,24.63
2019-04-07T09:08:28.058Z,23.38
2019-04-07T09:11:11.212Z,25.27
2019-04-07T09:13:43.051Z,26.25
2019-04-07T09:16:22.601Z,25.17
2019-04-07T09:19:09.552Z,22.17
2019-04-07T09:21:49.526Z,20.37
2019-04-07T09:24:35.951Z,20.72
2019-04-07T09:27:12.032Z,19.82
2019-04-07T09:29:55.788Z,19.48
2019-04-07T09:32:43.851Z,19.32
2019-04-07T09:35:26.477Z,20.65
2019-04-07T09:38:12.616Z,20.80
2019-04-07T09:40:48.415Z,20.27
2019-04-07T09:43:19.941Z,21.23
2019-04-07T09:45:53.998Z,25.35
2019-04-07T09:48:34.048Z,22.05
2019-04-07T09:51:11.187Z,23.92
2019-04-07T09:53:42.228Z,22.25
2019-04-07T09:56:31.752Z,25.43
2019-04-07T09:59:20.372Z,25.48
2019-04-07T10:01:57.049Z,24.63
2019-04-07T10:04:53.228Z,25.45
2019-04-07T10:07:27.094Z,22.35
2019-04-07T10:10:10.076Z,18.85
2019-04-07T10:12:36.380Z,18.50
2019-04-07T10:15:25.706Z,17.98
2019-04-07T10:18:02.355Z,18.60
2019-04-07T10:20:33.706Z,20.85
2019-04-07T10:23:05.215Z,23.22
2019-04-07T10:25:45.550Z,21.27
2019-04-07T10:28:16.793Z,20.10
2019-04-07T10:30:59.954Z,23.20
2019-04-07T10:33:34.363Z,21.95
2019-04-07T10:36:21.669Z,19.87
2019-04-07T10:38:52.553Z,19.95
2019-04-07T10:41:39.825Z,20.90
2019-04-07T10:44:29.241Z,20.90
2019-04-07T10:47:19.293Z,18.50
2019-04-07T10:50:02.403Z,17.35
2019-04-07T10:52:26.118Z,19.30
2019-04-07T10:55:14.183Z,17.15
2019-04-07T10:58:01.662Z,16.12
2019-04-07T11:00:51.005Z,16.67
2019-04-07T11:03:22.931Z,16.48
2019-04-07T11:06:06.041Z,16.55
2019-04-07T11:08:53.560Z,14.60
2019-04-07T11:11:27.425Z,14.93
2019-04-07T11:14:14.597Z,14.93
2019-04-07T11:17:01.464Z,15.72
2019-04-07T11:19:50.089Z,14.18
2019-04-07T11:22:37.155Z,12.75
2019-04-07T11:25:19.109Z,11.95
2019-04-07T11:27:52.879Z,13.35
2019-04-07T11:30:38.741Z,15.08
2019-04-07T11:33:09.672Z,14.47
2019-04-07T11:35:44.382Z,14.18
2019-04-07T11:38:19.700Z,14.90
2019-04-07T11:41:13.091Z,12.68
2019-04-07T11:43:53.383Z,12.33
2019-04-07T11:46:24.408Z,11.60
2019-04-07T11:49:04.543Z,11.93
2019-04-07T11:51:38.853Z,11.68
2019-04-07T11:54:22.092Z,12.10
2019-04-07T11:56:56.550Z,13.48
2019-04-07T11:59:44.769Z,12.68
2019-04-07T12:02:19.828Z,11.73
2019-04-07T12:05:08.189Z,12.18
2019-04-07T12:07:42.245Z,11.22
2019-04-07T12:10:16.435Z,13.08
2019-04-07T12:12:48.297Z,12.10
2019-04-07T12:15:35.246Z,12.65
2019-04-07T12:18:22.322Z,12.05
2019-04-07T12:20:56.262Z,12.35
2019-04-07T12:23:45.178Z,12.18
2019-04-07T12:26:17.086Z,11.15
2019-04-07T12:29:03.268Z,11.95
2019-04-07T12:31:34.753Z,11.28
2019-04-07T12:34:09.540Z,10.82
2019-04-07T12:36:38.721Z,10.08
2019-04-07T12:39:20.214Z,10.00
2019-04-07T12:42:04.392Z,9.78
2019-04-07T12:44:39.894Z,9.05
2019-04-07T12:47:14.563Z,9.08
2019-04-07T12:49:46.911Z,8.58
2019-04-07T12:52:29.770Z,9.45
2019-04-07T12:55:15.376Z,10.58
2019-04-07T12:57:47.762Z,10.15
2019-04-07T13:00:51.738Z,11.45
2019-04-07T13:03:08.671Z,10.98
2019-04-07T13:05:59.103Z,11.38
2019-04-07T13:08:46.827Z,10.68
2019-04-07T13:11:40.220Z,11.08
2019-04-07T13:14:15.254Z,11.43
2019-04-07T13:16:46.365Z,10.60
2019-04-07T13:19:19.930Z,12.23
2019-04-07T13:22:04.171Z,10.93
2019-04-07T13:24:38.840Z,11.00
2019-04-07T13:27:08.041Z,11.25
2019-04-07T13:29:45.533Z,11.45
2019-04-07T13:32:19.218Z,11.45
2019-04-07T13:35:02.160Z,12.03
2019-04-07T13:37:50.050Z,11.83
2019-04-07T13:40:21.760Z,11.20
2019-04-07T13:42:58.059Z,10.80
2019-04-07T13:45:34.456Z,11.20
2019-04-07T13:48:15.798Z,10.48
2019-04-07T13:50:46.814Z,11.55
2019-04-07T13:53:26.972Z,11.63
2019-04-07T13:55:57.240Z,12.00
2019-04-07T13:58:31.039Z,21.77
2019-04-07T14:01:10.716Z,19.80
2019-04-07T14:03:45.151Z,24.00
2019-04-07T14:06:28.355Z,20.25
2019-04-07T14:09:02.569Z,22.13
2019-04-07T14:11:52.470Z,21.00
2019-04-07T14:14:30.323Z,18.42
2019-04-07T14:17:13.215Z,16.25
2019-04-07T14:19:50.913Z,25.48
2019-04-07T14:22:28.121Z,22.55
2019-04-07T14:24:59.169Z,18.17
2019-04-07T14:27:47.179Z,12.68
2019-04-07T14:30:35.458Z,12.88
2019-04-07T14:33:23.000Z,13.28
2019-04-07T14:35:58.154Z,20.08
2019-04-07T14:38:41.939Z,14.95
2019-04-07T14:41:30.144Z,12.98
2019-04-07T14:44:17.306Z,13.22
2019-04-07T14:46:48.997Z,12.90
2019-04-07T14:49:20.061Z,15.00
2019-04-07T14:51:57.070Z,13.08
2019-04-07T14:54:28.233Z,14.68
2019-04-07T14:57:09.381Z,13.62
2019-04-07T14:59:58.902Z,14.25
2019-04-07T15:02:29.112Z,14.28
2019-04-07T15:05:15.954Z,13.53
2019-04-07T15:07:51.463Z,15.65
2019-04-07T15:10:22.410Z,14.05
2019-04-07T15:12:53.421Z,14.55
2019-04-07T15:15:23.653Z,12.47
2019-04-07T15:17:53.143Z,13.05
2019-04-07T15:20:22.461Z,13.58
2019-04-07T15:22:52.921Z,13.15
2019-04-07T15:25:22.668Z,12.43
2019-04-07T15:27:55.261Z,12.68
2019-04-07T15:30:23.246Z,14.13
2019-04-07T15:32:52.554Z,13.05
2019-04-07T15:35:22.240Z,13.40
2019-04-07T15:37:52.467Z,14.78
2019-04-07T15:40:22.063Z,13.88
2019-04-07T15:42:51.363Z,13.43
2019-04-07T15:45:21.666Z,13.85
2019-04-07T15:47:53.863Z,13.45
2019-04-07T15:50:23.070Z,12.53
2019-04-07T15:52:52.758Z,13.70
2019-04-07T15:55:28.313Z,13.40
2019-04-07T15:57:54.892Z,12.93
2019-04-07T16:00:24.268Z,12.50
2019-04-07T16:02:54.820Z,12.47
2019-04-07T16:05:24.345Z,12.30
2019-04-07T16:07:55.417Z,12.60
2019-04-07T16:10:24.799Z,12.93
2019-04-07T16:12:57.675Z,12.65
2019-04-07T16:15:25.958Z,13.30
2019-04-07T16:17:55.615Z,12.55
2019-04-07T16:20:31.622Z,13.65
2019-04-07T16:22:56.384Z,13.48
2019-04-07T16:25:27.873Z,13.40
2019-04-07T16:27:56.957Z,12.65
2019-04-07T16:30:26.336Z,13.30
2019-04-07T16:33:00.255Z,14.07
2019-04-07T16:35:27.760Z,14.23
2019-04-07T16:37:58.425Z,12.95
2019-04-07T16:40:28.311Z,17.02
2019-04-07T16:43:09.302Z,20.08
2019-04-07T16:45:29.343Z,20.40
2019-04-07T16:47:58.867Z,16.05
2019-04-07T16:50:28.244Z,17.15
2019-04-07T16:52:57.573Z,15.40
2019-04-07T16:55:37.240Z,15.18
2019-04-07T16:58:08.420Z,15.00
2019-04-07T17:00:38.415Z,14.68
2019-04-07T17:03:10.074Z,15.95
2019-04-07T17:05:39.797Z,16.82
2019-04-07T17:08:09.221Z,14.05
2019-04-07T17:10:39.157Z,13.48
2019-04-07T17:13:17.871Z,14.70
2019-04-07T17:15:41.773Z,14.28
2019-04-07T17:18:31.976Z,14.18
2019-04-07T17:21:02.299Z,14.05
2019-04-07T17:23:32.390Z,14.85
2019-04-07T17:26:04.806Z,14.63
2019-04-07T17:28:33.508Z,15.13
2019-04-07T17:31:03.535Z,14.55
2019-04-07T17:33:36.837Z,13.85
2019-04-07T17:36:04.040Z,14.73
2019-04-07T17:38:50.839Z,14.68
2019-04-07T17:41:20.258Z,14.73
2019-04-07T17:43:59.761Z,14.43
2019-04-07T17:46:47.916Z,15.35
2019-04-07T17:49:30.884Z,15.78
2019-04-07T17:52:12.817Z,15.28
2019-04-07T17:54:43.851Z,15.68
2019-04-07T17:57:36.601Z,16.62
2019-04-07T18:00:21.564Z,16.70
2019-04-07T18:02:56.875Z,16.52
2019-04-07T18:05:29.246Z,17.15
2019-04-07T18:08:10.215Z,17.42
2019-04-07T18:10:50.742Z,16.25
2019-04-07T18:13:24.776Z,17.20
2019-04-07T18:16:12.316Z,18.50
2019-04-07T18:18:59.554Z,17.15
2019-04-07T18:21:51.678Z,18.62
2019-04-07T18:24:19.364Z,19.10
2019-04-07T18:26:50.376Z,18.57
2019-04-07T18:29:29.371Z,18.37
2019-04-07T18:32:00.117Z,17.62
2019-04-07T18:34:43.356Z,18.27
2019-04-07T18:37:36.473Z,17.42
2019-04-07T18:40:14.383Z,18.42
2019-04-07T18:43:04.276Z,21.77
2019-04-07T18:45:44.790Z,20.90
2019-04-07T18:48:22.736Z,20.32
2019-04-07T18:50:55.085Z,20.30
2019-04-07T18:53:31.899Z,19.23
2019-04-07T18:56:15.254Z,18.77
2019-04-07T18:58:52.603Z,19.17
2019-04-07T19:01:40.984Z,18.57
2019-04-07T19:04:24.196Z,19.30
2019-04-07T19:06:54.087Z,19.35
2019-04-07T19:09:28.306Z,20.30
2019-04-07T19:12:05.860Z,20.70
2019-04-07T19:14:50.371Z,20.82
2019-04-07T19:17:21.726Z,19.90
2019-04-07T19:19:53.188Z,19.67
2019-04-07T19:22:32.863Z,19.87
2019-04-07T19:25:11.369Z,17.67
2019-04-07T19:27:57.587Z,19.60
2019-04-07T19:30:37.029Z,18.82
2019-04-07T19:33:08.926Z,18.67
2019-04-07T19:35:59.254Z,18.45
2019-04-07T19:38:39.888Z,18.87
2019-04-07T19:41:16.768Z,18.85
2019-04-07T19:43:48.011Z,18.73
2019-04-07T19:46:36.902Z,18.07
2019-04-07T19:49:21.546Z,18.82
2019-04-07T19:51:50.840Z,19.37
2019-04-07T19:54:24.958Z,19.70
2019-04-07T19:56:58.773Z,19.17
2019-04-07T19:59:42.891Z,19.40
2019-04-07T20:02:17.476Z,20.00
2019-04-07T20:05:00.539Z,19.05
2019-04-07T20:07:50.406Z,19.07
2019-04-07T20:10:24.476Z,18.60
2019-04-07T20:12:54.631Z,19.95
2019-04-07T20:15:38.992Z,19.65
2019-04-07T20:18:08.516Z,20.70
2019-04-07T20:20:53.531Z,19.90
2019-04-07T20:23:37.088Z,19.45
2019-04-07T20:26:21.418Z,19.73
2019-04-07T20:29:05.856Z,18.70
2019-04-07T20:31:34.452Z,17.92
2019-04-07T20:34:06.165Z,20.00
2019-04-07T20:36:38.009Z,18.77
2019-04-07T20:39:11.488Z,20.57
2019-04-07T20:41:54.705Z,20.30
2019-04-07T20:44:38.173Z,19.12
2019-04-07T20:47:09.126Z,18.82
2019-04-07T20:49:43.612Z,19.05
2019-04-07T20:52:30.091Z,18.90
2019-04-07T20:55:09.976Z,18.87
2019-04-07T20:57:46.535Z,19.40
2019-04-07T21:00:37.260Z,18.60
2019-04-07T21:03:25.137Z,19.70
2019-04-07T21:05:55.972Z,18.75
2019-04-07T21:08:30.214Z,19.37
2019-04-07T21:10:59.807Z,19.45
2019-04-07T21:13:37.433Z,18.55
2019-04-07T21:16:08.533Z,19.45
2019-04-07T21:18:42.359Z,20.35
2019-04-07T21:21:13.891Z,20.02
2019-04-07T21:23:57.360Z,20.40
2019-04-07T21:26:37.642Z,20.95
2019-04-07T21:29:10.982Z,20.95
2019-04-07T21:31:53.474Z,19.90
2019-04-07T21:34:40.681Z,20.92
2019-04-07T21:37:23.504Z,20.55
2019-04-07T21:39:54.501Z,21.40
2019-04-07T21:42:28.362Z,20.55
2019-04-07T21:45:27.816Z,21.45
2019-04-07T21:47:48.637Z,21.17
2019-04-07T21:50:22.308Z,22.27
2019-04-07T21:52:55.301Z,22.22
2019-04-07T21:55:25.371Z,22.13
2019-04-07T21:57:58.148Z,21.52
2019-04-07T22:00:45.520Z,21.68
2019-04-07T22:03:33.215Z,20.57
2019-04-07T22:06:19.270Z,21.27
2019-04-07T22:09:05.085Z,20.35
2019-04-07T22:11:34.690Z,21.15
2019-04-07T22:14:07.293Z,21.15
2019-04-07T22:16:35.487Z,21.97
2019-04-07T22:19:10.258Z,20.40
2019-04-07T22:21:36.230Z,21.15
2019-04-07T22:24:06.815Z,21.07
2019-04-07T22:26:37.068Z,21.52
2019-04-07T22:29:07.664Z,20.48
2019-04-07T22:31:46.112Z,19.65
2019-04-07T22:34:16.525Z,20.82
2019-04-07T22:36:47.892Z,21.30
2019-04-07T22:39:17.190Z,20.92
2019-04-07T22:41:46.579Z,20.80
2019-04-07T22:44:19.838Z,21.65
2019-04-07T22:46:49.460Z,22.22
2019-04-07T22:49:18.092Z,23.02
2019-04-07T22:51:49.530Z,23.05
2019-04-07T22:54:18.816Z,22.85
2019-04-07T22:56:48.800Z,21.50
2019-04-07T22:59:18.223Z,21.12
2019-04-07T23:01:47.576Z,23.15
2019-04-07T23:04:16.960Z,21.60
2019-04-07T23:06:46.270Z,21.90
2019-04-07T23:09:15.881Z,23.02
2019-04-07T23:11:46.128Z,22.87
2019-04-07T23:14:15.794Z,22.87
2019-04-07T23:16:45.192Z,23.15
2019-04-07T23:19:14.508Z,23.45
2019-04-07T23:21:43.800Z,23.25
2019-04-07T23:24:13.231Z,22.77
2019-04-07T23:26:42.633Z,22.10
2019-04-07T23:29:12.175Z,22.17
2019-04-07T23:31:42.047Z,23.57
2019-04-07T23:34:11.373Z,22.52
2019-04-07T23:36:40.941Z,22.48
2019-04-07T23:39:11.114Z,23.50
2019-04-07T23:41:41.405Z,23.55
2019-04-07T23:44:10.787Z,23.85
2019-04-07T23:46:40.142Z,23.57
2019-04-07T23:49:09.957Z,23.90
2019-04-07T23:51:39.408Z,24.12
2019-04-07T23:54:11.237Z,25.70
2019-04-07T23:56:43.618Z,25.62
2019-04-07T23:59:13.194Z,26.45
